Time;durP1;ratioP1;P1;durP2;ratioP2;P2;SDS_P1;SDS_P2;PMS_P1;PMS_P2;Temp;Humidity;BMP_temperature;BMP_pressure;BME280_temperature;BME280_humidity;BME280_pressure;Samples;Min_cycle;Max_cycle;Signal;HPM_P1;HPM_P2
2022/10/19 00:00:17;;;;;;;2.00;1.90;;;;;;;;;;5051466;28;20225;-78
2022/10/19 00:02:44;;;;;;;2.67;2.47;;;;;;;;;;5052025;28;20237;-79
2022/10/19 00:05:10;;;;;;;2.43;2.23;;;;;;;;;;5051221;28;20676;-78
2022/10/19 00:07:37;;;;;;;3.47;2.23;;;;;;;;;;5051161;28;20202;-79
2022/10/19 00:10:05;;;;;;;4.57;2.47;;;;;;;;;;5051558;28;20212;-79
2022/10/19 00:12:31;;;;;;;2.03;1.87;;;;;;;;;;5051662;28;20669;-79
2022/10/19 00:15:00;;;;;;;2.77;2.57;;;;;;;;;;5051473;28;20203;-79
2022/10/19 00:17:26;;;;;;;2.70;2.40;;;;;;;;;;5051657;28;20213;-78
2022/10/19 00:19:53;;;;;;;2.50;2.30;;;;;;;;;;5050934;28;20222;-79
2022/10/19 00:22:20;;;;;;;3.93;2.90;;;;;;;;;;5051552;28;20202;-78
2022/10/19 00:24:47;;;;;;;8.70;2.97;;;;;;;;;;5051406;28;20252;-79
2022/10/19 00:27:13;;;;;;;3.27;2.30;;;;;;;;;;5051433;28;20267;-78
2022/10/19 00:29:40;;;;;;;2.23;2.03;;;;;;;;;;5051321;28;20225;-79
2022/10/19 00:32:08;;;;;;;1.97;1.87;;;;;;;;;;5051690;28;20281;-79
2022/10/19 00:34:35;;;;;;;3.53;2.33;;;;;;;;;;5044936;28;20198;-78
2022/10/19 00:37:02;;;;;;;4.57;2.60;;;;;;;;;;5051470;28;20209;-79
2022/10/19 00:39:28;;;;;;;3.33;2.10;;;;;;;;;;5050708;28;20225;-79
2022/10/19 00:41:55;;;;;;;2.90;2.70;;;;;;;;;;5051628;28;20205;-79
2022/10/19 00:44:57;;;;;;;2.50;2.30;;;;;;;;;;5051085;28;20292;-79
2022/10/19 00:47:25;;;;;;;2.83;2.40;;;;;;;;;;5050918;28;20209;-79
2022/10/19 00:49:52;;;;;;;2.63;2.27;;;;;;;;;;5050634;28;20777;-79
2022/10/19 00:52:21;;;;;;;2.57;2.23;;;;;;;;;;5051404;28;20209;-79
2022/10/19 00:54:49;;;;;;;3.03;2.60;;;;;;;;;;5050493;28;20609;-78
2022/10/19 00:57:16;;;;;;;3.00;2.67;;;;;;;;;;5051007;28;20209;-78
2022/10/19 00:59:43;;;;;;;3.80;2.47;;;;;;;;;;5050447;28;20233;-79
2022/10/19 01:02:10;;;;;;;3.60;2.73;;;;;;;;;;5050426;28;20222;-79
2022/10/19 01:04:42;;;;;;;2.73;2.53;;;;;;;;;;5050804;28;20253;-79
2022/10/19 01:07:09;;;;;;;3.03;2.73;;;;;;;;;;5050429;28;20245;-79
2022/10/19 01:09:36;;;;;;;4.60;3.23;;;;;;;;;;5050677;28;20202;-79
2022/10/19 01:12:08;;;;;;;3.47;2.70;;;;;;;;;;5050220;28;20639;-79
2022/10/19 01:14:42;;;;;;;4.90;2.77;;;;;;;;;;5050460;28;20212;-79
2022/10/19 01:17:14;;;;;;;2.83;2.43;;;;;;;;;;5050628;28;20206;-79
2022/10/19 01:20:21;;;;;;;3.13;2.73;;;;;;;;;;5050265;28;20218;-79
2022/10/19 01:23:00;;;;;;;4.97;2.30;;;;;;;;;;5013451;28;20209;-78
2022/10/19 01:25:39;;;;;;;2.73;2.40;;;;;;;;;;5050531;28;20255;-78
2022/10/19 01:28:18;;;;;;;3.13;2.90;;;;;;;;;;5050975;28;20252;-79
2022/10/19 01:30:49;;;;;;;4.10;2.80;;;;;;;;;;5049958;28;20209;-79
2022/10/19 01:33:30;;;;;;;4.73;3.20;;;;;;;;;;5050014;28;20208;-79
2022/10/19 01:36:04;;;;;;;3.37;2.93;;;;;;;;;;5049102;28;20205;-79
2022/10/19 01:38:36;;;;;;;3.30;3.10;;;;;;;;;;5050284;28;20201;-79
2022/10/19 01:41:11;;;;;;;3.30;3.00;;;;;;;;;;5049922;28;20724;-79
2022/10/19 01:43:41;;;;;;;2.80;2.60;;;;;;;;;;5050097;28;20212;-79
2022/10/19 01:46:12;;;;;;;5.20;2.60;;;;;;;;;;5050151;28;20620;-78
2022/10/19 01:48:41;;;;;;;2.43;2.23;;;;;;;;;;5036406;28;20665;-78
2022/10/19 01:51:10;;;;;;;3.83;3.07;;;;;;;;;;5049986;28;20206;-78
2022/10/19 01:53:41;;;;;;;4.20;2.60;;;;;;;;;;5050200;28;20255;-79
2022/10/19 01:56:08;;;;;;;4.73;3.73;;;;;;;;;;5050101;28;20202;-78
2022/10/19 01:58:37;;;;;;;3.27;2.97;;;;;;;;;;5050272;28;20706;-78
2022/10/19 02:01:05;;;;;;;3.30;2.97;;;;;;;;;;5052323;28;20221;-79
2022/10/19 02:03:34;;;;;;;3.33;2.83;;;;;;;;;;5047509;28;20209;-79
2022/10/19 02:06:02;;;;;;;3.10;2.90;;;;;;;;;;5054321;28;20197;-79
2022/10/19 02:08:31;;;;;;;5.97;2.57;;;;;;;;;;5053899;28;20210;-79
2022/10/19 02:10:59;;;;;;;2.70;2.47;;;;;;;;;;5053889;28;20198;-79
2022/10/19 02:13:27;;;;;;;3.87;2.73;;;;;;;;;;5054339;28;20232;-79
2022/10/19 02:15:55;;;;;;;3.03;2.83;;;;;;;;;;5039064;28;20201;-79
2022/10/19 02:18:27;;;;;;;3.27;2.97;;;;;;;;;;5053814;28;20216;-79
2022/10/19 02:20:55;;;;;;;3.20;2.90;;;;;;;;;;5053249;28;20221;-79
2022/10/19 02:23:24;;;;;;;3.10;2.80;;;;;;;;;;5053914;28;20206;-79
2022/10/19 02:25:51;;;;;;;3.60;3.03;;;;;;;;;;5053710;28;20201;-79
2022/10/19 02:28:18;;;;;;;3.20;2.90;;;;;;;;;;5054007;28;20202;-79
2022/10/19 02:30:45;;;;;;;3.87;3.33;;;;;;;;;;5053273;28;20643;-79
2022/10/19 02:33:12;;;;;;;4.70;2.30;;;;;;;;;;5053532;28;20202;-80
2022/10/19 02:35:39;;;;;;;3.07;2.40;;;;;;;;;;5053274;28;20229;-79
2022/10/19 02:38:08;;;;;;;2.77;2.43;;;;;;;;;;5052889;28;20280;-79
2022/10/19 02:40:38;;;;;;;2.40;2.20;;;;;;;;;;5052305;28;20766;-79
2022/10/19 02:43:07;;;;;;;4.63;4.00;;;;;;;;;;5038850;28;20691;-78
2022/10/19 02:45:37;;;;;;;2.60;2.40;;;;;;;;;;5052381;28;20202;-78
2022/10/19 02:48:06;;;;;;;2.43;2.23;;;;;;;;;;5051931;28;20260;-79
2022/10/19 02:50:33;;;;;;;3.63;2.50;;;;;;;;;;5052287;28;20685;-79
2022/10/19 02:53:00;;;;;;;3.77;2.13;;;;;;;;;;5052873;28;20205;-78
2022/10/19 02:55:28;;;;;;;3.03;2.73;;;;;;;;;;5052856;28;20664;-78
2022/10/19 02:57:56;;;;;;;3.67;2.43;;;;;;;;;;5053558;28;20287;-78
2022/10/19 03:00:23;;;;;;;2.60;2.40;;;;;;;;;;5052636;28;20226;-78
2022/10/19 03:02:50;;;;;;;4.43;2.27;;;;;;;;;;5053313;28;20994;-78
2022/10/19 03:05:16;;;;;;;2.37;2.17;;;;;;;;;;5052627;28;20201;-79
2022/10/19 03:07:43;;;;;;;4.03;2.40;;;;;;;;;;5053269;28;20205;-79
2022/10/19 03:10:10;;;;;;;2.90;2.33;;;;;;;;;;5052917;28;20299;-78
2022/10/19 03:12:38;;;;;;;3.73;2.30;;;;;;;;;;5052605;28;20194;-78
2022/10/19 03:15:06;;;;;;;2.40;2.20;;;;;;;;;;5052615;28;20506;-79
2022/10/19 03:17:32;;;;;;;5.30;2.87;;;;;;;;;;5052888;28;20190;-78
2022/10/19 03:19:59;;;;;;;3.50;2.43;;;;;;;;;;5052230;28;20259;-79
2022/10/19 03:22:26;;;;;;;2.80;2.60;;;;;;;;;;5053123;28;20206;-79
2022/10/19 03:24:53;;;;;;;2.60;2.40;;;;;;;;;;5052589;28;20206;-78
2022/10/19 03:27:19;;;;;;;4.30;2.40;;;;;;;;;;5052535;28;20201;-78
2022/10/19 03:29:48;;;;;;;2.80;2.60;;;;;;;;;;5052205;28;20209;-78
2022/10/19 03:32:16;;;;;;;4.17;2.63;;;;;;;;;;5052926;28;20205;-78
2022/10/19 03:34:43;;;;;;;10.90;3.10;;;;;;;;;;5052830;28;20275;-78
2022/10/19 03:37:12;;;;;;;8.27;3.33;;;;;;;;;;5052379;28;20202;-78
2022/10/19 03:39:39;;;;;;;7.17;2.87;;;;;;;;;;5052065;28;20257;-78
2022/10/19 03:42:05;;;;;;;5.97;2.67;;;;;;;;;;5052258;28;20244;-79
2022/10/19 03:44:32;;;;;;;3.90;3.60;;;;;;;;;;5051845;28;20210;-79
2022/10/19 03:47:00;;;;;;;4.53;3.30;;;;;;;;;;5052036;28;20201;-79
2022/10/19 03:49:27;;;;;;;4.67;2.77;;;;;;;;;;5051057;28;20221;-78
2022/10/19 03:51:54;;;;;;;3.90;2.90;;;;;;;;;;5041559;28;20197;-79
2022/10/19 03:54:20;;;;;;;4.30;2.70;;;;;;;;;;5051331;28;20210;-78
2022/10/19 03:56:47;;;;;;;3.10;2.80;;;;;;;;;;5051556;28;20750;-81
2022/10/19 03:59:15;;;;;;;3.27;1.97;;;;;;;;;;5052010;28;20208;-81
2022/10/19 04:01:44;;;;;;;3.00;2.20;;;;;;;;;;5052094;28;20245;-82
2022/10/19 04:04:16;;;;;;;3.27;2.87;;;;;;;;;;5051923;28;20194;-81
2022/10/19 04:06:44;;;;;;;2.90;2.70;;;;;;;;;;5052080;28;20213;-81
2022/10/19 04:09:13;;;;;;;6.37;3.07;;;;;;;;;;5051805;28;20599;-81
2022/10/19 04:11:40;;;;;;;2.80;2.57;;;;;;;;;;5051783;28;20202;-82
2022/10/19 04:14:07;;;;;;;3.37;3.07;;;;;;;;;;5051812;28;20209;-81
2022/10/19 04:16:33;;;;;;;3.30;2.67;;;;;;;;;;5051953;28;20198;-81
2022/10/19 04:19:00;;;;;;;3.90;3.20;;;;;;;;;;5051630;28;20285;-81
2022/10/19 04:21:30;;;;;;;3.47;2.33;;;;;;;;;;5051727;28;20259;-81
2022/10/19 04:23:59;;;;;;;4.33;3.70;;;;;;;;;;5050678;28;20202;-81
2022/10/19 04:26:25;;;;;;;3.27;3.03;;;;;;;;;;5051965;28;20202;-82
2022/10/19 04:28:52;;;;;;;4.20;3.47;;;;;;;;;;5051506;28;20217;-82
2022/10/19 04:31:19;;;;;;;4.07;3.73;;;;;;;;;;5051263;28;20209;-81
2022/10/19 04:33:46;;;;;;;6.20;3.47;;;;;;;;;;5051643;28;20256;-82
2022/10/19 04:36:13;;;;;;;5.23;4.20;;;;;;;;;;5051332;28;20551;-83
2022/10/19 04:38:41;;;;;;;3.47;3.10;;;;;;;;;;5051028;28;20202;-81
2022/10/19 04:41:09;;;;;;;8.00;3.30;;;;;;;;;;5051029;28;20232;-81
2022/10/19 04:43:37;;;;;;;3.93;3.17;;;;;;;;;;5051400;28;20205;-81
2022/10/19 04:46:04;;;;;;;3.17;2.93;;;;;;;;;;5051515;28;20209;-82
2022/10/19 04:48:31;;;;;;;2.47;2.27;;;;;;;;;;5050812;28;20211;-81
2022/10/19 04:50:58;;;;;;;4.87;2.70;;;;;;;;;;5050880;28;20255;-81
2022/10/19 04:53:25;;;;;;;3.43;2.80;;;;;;;;;;5051526;28;20202;-81
2022/10/19 04:55:53;;;;;;;2.90;2.27;;;;;;;;;;5050913;28;20684;-81
2022/10/19 04:58:20;;;;;;;2.93;2.57;;;;;;;;;;5051261;28;20198;-82
2022/10/19 05:00:47;;;;;;;2.90;2.70;;;;;;;;;;5050759;28;20221;-82
2022/10/19 05:03:13;;;;;;;5.50;2.70;;;;;;;;;;5051524;28;20241;-81
2022/10/19 05:05:40;;;;;;;6.07;3.20;;;;;;;;;;5050636;28;20201;-82
2022/10/19 05:08:07;;;;;;;4.57;2.47;;;;;;;;;;5050727;28;20599;-82
2022/10/19 05:10:34;;;;;;;3.00;2.70;;;;;;;;;;5050758;28;20194;-82
2022/10/19 05:13:02;;;;;;;2.80;2.60;;;;;;;;;;5050993;28;20202;-82
2022/10/19 05:15:29;;;;;;;6.93;3.30;;;;;;;;;;5050220;28;20210;-82
2022/10/19 05:17:56;;;;;;;5.03;2.93;;;;;;;;;;5050703;28;20255;-81
2022/10/19 05:20:23;;;;;;;3.10;2.40;;;;;;;;;;5050714;28;20213;-82
2022/10/19 05:22:50;;;;;;;3.50;3.00;;;;;;;;;;5050871;28;20226;-82
2022/10/19 05:25:17;;;;;;;9.47;4.00;;;;;;;;;;5050679;28;20205;-82
2022/10/19 05:27:44;;;;;;;7.13;5.57;;;;;;;;;;5050724;28;20807;-82
2022/10/19 05:30:13;;;;;;;8.47;7.57;;;;;;;;;;5050318;28;20586;-81
2022/10/19 05:32:40;;;;;;;18.67;11.10;;;;;;;;;;5050428;28;20669;-82
2022/10/19 05:35:07;;;;;;;13.27;9.47;;;;;;;;;;5050210;28;20206;-82
2022/10/19 05:37:34;;;;;;;11.20;7.83;;;;;;;;;;5050497;28;20734;-82
2022/10/19 05:40:01;;;;;;;15.93;10.00;;;;;;;;;;5050544;28;20198;-82
2022/10/19 05:42:28;;;;;;;13.37;10.53;;;;;;;;;;5050591;28;20684;-82
2022/10/19 05:44:55;;;;;;;6.77;5.67;;;;;;;;;;5050371;28;20201;-82
2022/10/19 05:47:23;;;;;;;5.47;4.80;;;;;;;;;;5050409;28;20197;-82
2022/10/19 05:49:50;;;;;;;4.13;3.60;;;;;;;;;;5050421;28;20206;-82
2022/10/19 05:52:17;;;;;;;7.57;5.07;;;;;;;;;;5050208;28;20198;-82
2022/10/19 05:54:43;;;;;;;5.40;4.17;;;;;;;;;;5050165;28;20297;-82
2022/10/19 05:57:10;;;;;;;10.23;4.10;;;;;;;;;;5050546;28;20201;-83
2022/10/19 05:59:37;;;;;;;5.43;4.40;;;;;;;;;;5049966;28;20684;-82
2022/10/19 06:02:04;;;;;;;8.97;5.90;;;;;;;;;;5049609;28;20229;-82
2022/10/19 06:04:32;;;;;;;7.93;4.80;;;;;;;;;;5050518;28;20210;-82
2022/10/19 06:07:00;;;;;;;9.83;5.73;;;;;;;;;;5050406;28;20194;-82
2022/10/19 06:09:27;;;;;;;4.90;4.17;;;;;;;;;;5050045;28;20217;-82
2022/10/19 06:11:54;;;;;;;8.03;3.83;;;;;;;;;;5050613;28;20202;-82
2022/10/19 06:14:21;;;;;;;8.90;4.50;;;;;;;;;;5050048;28;20214;-81
2022/10/19 06:16:47;;;;;;;10.80;4.67;;;;;;;;;;5050373;28;20556;-82
2022/10/19 06:19:14;;;;;;;10.07;4.80;;;;;;;;;;5049951;28;20205;-82
2022/10/19 06:21:44;;;;;;;6.60;5.40;;;;;;;;;;5050495;28;20232;-82
2022/10/19 06:24:11;;;;;;;16.80;5.63;;;;;;;;;;5049895;28;20201;-82
2022/10/19 06:26:38;;;;;;;13.73;7.03;;;;;;;;;;5049909;28;20197;-82
2022/10/19 06:29:05;;;;;;;12.17;5.70;;;;;;;;;;5049659;28;20202;-82
2022/10/19 06:31:34;;;;;;;11.30;5.47;;;;;;;;;;5050394;28;20206;-82
2022/10/19 06:34:01;;;;;;;8.70;5.70;;;;;;;;;;5049681;28;20207;-81
2022/10/19 06:36:29;;;;;;;11.63;6.93;;;;;;;;;;5049986;28;20260;-82
2022/10/19 06:38:58;;;;;;;6.30;4.63;;;;;;;;;;5049899;28;20291;-82
2022/10/19 06:41:25;;;;;;;8.00;3.50;;;;;;;;;;5036404;28;20226;-82
2022/10/19 06:43:52;;;;;;;6.03;3.77;;;;;;;;;;5050412;28;20209;-82
2022/10/19 06:46:22;;;;;;;5.30;3.50;;;;;;;;;;5050795;28;20198;-82
2022/10/19 06:48:52;;;;;;;3.23;2.70;;;;;;;;;;5053689;28;20205;-82
2022/10/19 06:51:20;;;;;;;4.27;2.50;;;;;;;;;;5053228;28;20216;-81
2022/10/19 06:53:47;;;;;;;1.93;1.83;;;;;;;;;;5053730;28;21147;-82
2022/10/19 06:56:15;;;;;;;4.93;2.83;;;;;;;;;;5052976;28;20212;-82
2022/10/19 06:58:42;;;;;;;3.60;2.90;;;;;;;;;;5053553;28;20208;-82
2022/10/19 07:01:10;;;;;;;2.43;2.23;;;;;;;;;;5052847;28;20209;-81
2022/10/19 07:03:37;;;;;;;2.67;2.17;;;;;;;;;;5053283;28;20624;-82
2022/10/19 07:06:06;;;;;;;3.10;2.80;;;;;;;;;;5052904;28;20211;-82
2022/10/19 07:08:33;;;;;;;7.47;3.20;;;;;;;;;;5052892;28;20209;-82
2022/10/19 07:11:01;;;;;;;2.40;2.20;;;;;;;;;;5052988;28;20680;-82
2022/10/19 07:13:30;;;;;;;2.80;2.60;;;;;;;;;;5053359;28;20202;-81
2022/10/19 07:15:58;;;;;;;2.47;2.33;;;;;;;;;;5052707;28;20206;-82
2022/10/19 07:18:25;;;;;;;2.73;2.20;;;;;;;;;;5053345;28;20230;-83
2022/10/19 07:20:56;;;;;;;2.37;2.17;;;;;;;;;;5052901;28;20286;-82
2022/10/19 07:23:24;;;;;;;3.57;2.40;;;;;;;;;;5052621;28;20794;-82
2022/10/19 07:25:52;;;;;;;3.83;2.77;;;;;;;;;;5052851;28;20193;-83
2022/10/19 07:28:19;;;;;;;3.80;3.03;;;;;;;;;;5053143;28;20206;-83
2022/10/19 07:30:47;;;;;;;2.67;2.47;;;;;;;;;;5052648;28;20206;-82
2022/10/19 07:33:14;;;;;;;3.23;2.33;;;;;;;;;;5053060;28;20580;-83
2022/10/19 07:35:41;;;;;;;3.60;2.43;;;;;;;;;;5052031;28;20202;-83
2022/10/19 07:38:07;;;;;;;3.83;2.70;;;;;;;;;;5053136;28;20205;-82
2022/10/19 07:40:34;;;;;;;2.90;2.13;;;;;;;;;;5052861;28;20201;-82
2022/10/19 07:43:01;;;;;;;2.50;2.30;;;;;;;;;;5052753;28;20241;-82
2022/10/19 07:45:28;;;;;;;2.60;2.40;;;;;;;;;;5052417;28;20202;-82
2022/10/19 07:47:57;;;;;;;4.43;2.50;;;;;;;;;;5052501;28;20654;-81
2022/10/19 07:50:24;;;;;;;3.13;2.40;;;;;;;;;;5052256;28;20209;-83
2022/10/19 07:52:51;;;;;;;2.57;2.20;;;;;;;;;;5052515;28;20292;-83
2022/10/19 07:55:18;;;;;;;4.63;2.00;;;;;;;;;;5051774;28;20660;-83
2022/10/19 07:57:47;;;;;;;2.57;2.30;;;;;;;;;;5051354;28;20564;-83
2022/10/19 08:00:14;;;;;;;2.23;2.03;;;;;;;;;;5052155;28;20209;-82
2022/10/19 08:02:41;;;;;;;2.87;2.00;;;;;;;;;;5051830;28;20705;-82
2022/10/19 08:05:09;;;;;;;2.03;1.90;;;;;;;;;;5052103;28;20207;-82
2022/10/19 08:07:39;;;;;;;5.43;2.23;;;;;;;;;;5052300;28;20194;-82
2022/10/19 08:10:06;;;;;;;1.87;1.77;;;;;;;;;;5051850;28;20292;-82
2022/10/19 08:12:35;;;;;;;1.70;1.60;;;;;;;;;;5052032;28;20199;-82
2022/10/19 08:15:05;;;;;;;4.00;1.83;;;;;;;;;;5051849;28;20244;-82
2022/10/19 08:17:36;;;;;;;2.47;2.20;;;;;;;;;;5051548;28;20258;-82
2022/10/19 08:20:03;;;;;;;2.13;1.90;;;;;;;;;;5051947;28;20235;-82
2022/10/19 08:22:31;;;;;;;2.03;1.93;;;;;;;;;;5051866;28;20233;-82
2022/10/19 08:24:58;;;;;;;4.83;1.57;;;;;;;;;;5051510;28;20215;-83
2022/10/19 08:27:25;;;;;;;4.63;1.87;;;;;;;;;;5051619;28;20252;-83
2022/10/19 08:29:52;;;;;;;8.97;2.30;;;;;;;;;;5051720;28;20233;-82
2022/10/19 08:32:18;;;;;;;3.03;2.43;;;;;;;;;;5051624;28;20218;-82
2022/10/19 08:34:45;;;;;;;3.70;2.50;;;;;;;;;;5051490;28;20200;-82
2022/10/19 08:37:12;;;;;;;7.53;3.33;;;;;;;;;;5051352;28;20213;-82
2022/10/19 08:39:40;;;;;;;9.37;2.33;;;;;;;;;;5051086;28;20211;-82
2022/10/19 08:42:13;;;;;;;4.13;2.43;;;;;;;;;;5051053;28;20226;-82
2022/10/19 08:44:51;;;;;;;3.73;2.37;;;;;;;;;;5051435;28;20234;-82
2022/10/19 08:47:23;;;;;;;3.70;2.40;;;;;;;;;;5051227;28;20201;-82
2022/10/19 08:49:50;;;;;;;5.23;2.00;;;;;;;;;;5051139;28;20211;-82
2022/10/19 08:52:20;;;;;;;2.87;2.43;;;;;;;;;;5051402;28;20212;-82
2022/10/19 08:54:51;;;;;;;2.57;2.10;;;;;;;;;;5050935;28;20205;-82
2022/10/19 08:57:29;;;;;;;4.70;2.63;;;;;;;;;;5051261;28;20228;-81
2022/10/19 09:00:01;;;;;;;1.93;1.70;;;;;;;;;;5051002;28;20193;-82
2022/10/19 09:02:38;;;;;;;2.83;2.43;;;;;;;;;;5051571;28;20237;-82
2022/10/19 09:05:12;;;;;;;3.63;2.93;;;;;;;;;;5050615;28;20711;-81
2022/10/19 09:07:44;;;;;;;2.70;2.50;;;;;;;;;;5050886;28;20211;-82
2022/10/19 09:10:18;;;;;;;2.93;2.00;;;;;;;;;;5050285;28;20688;-81
2022/10/19 09:12:48;;;;;;;2.80;2.60;;;;;;;;;;5051068;28;20614;-82
2022/10/19 09:15:18;;;;;;;3.27;2.67;;;;;;;;;;5050885;28;20232;-82
2022/10/19 09:17:45;;;;;;;4.97;2.43;;;;;;;;;;5050507;28;20208;-82
2022/10/19 09:20:17;;;;;;;4.67;2.20;;;;;;;;;;5050748;28;20213;-81
2022/10/19 09:22:45;;;;;;;5.53;2.60;;;;;;;;;;5051065;28;20222;-82
2022/10/19 09:25:19;;;;;;;5.70;2.13;;;;;;;;;;5050627;28;20213;-82
2022/10/19 09:27:48;;;;;;;3.67;2.90;;;;;;;;;;5050867;28;20198;-81
2022/10/19 09:30:18;;;;;;;5.00;2.43;;;;;;;;;;5050279;28;20202;-81
2022/10/19 09:32:44;;;;;;;4.57;2.40;;;;;;;;;;5050767;28;20201;-82
2022/10/19 09:35:22;;;;;;;5.50;2.90;;;;;;;;;;5050760;28;20209;-82
2022/10/19 09:37:49;;;;;;;3.77;2.73;;;;;;;;;;5050707;28;20626;-82
2022/10/19 09:40:20;;;;;;;4.70;2.97;;;;;;;;;;5050574;28;20221;-82
2022/10/19 09:42:51;;;;;;;2.93;2.60;;;;;;;;;;5049813;28;20715;-82
2022/10/19 09:45:29;;;;;;;4.07;3.17;;;;;;;;;;5050319;28;20708;-81
2022/10/19 09:47:56;;;;;;;4.10;3.03;;;;;;;;;;5050348;28;20209;-81
2022/10/19 09:50:25;;;;;;;4.13;3.30;;;;;;;;;;5050572;28;20201;-81
2022/10/19 09:52:53;;;;;;;6.47;3.67;;;;;;;;;;5050377;28;20594;-82
2022/10/19 09:55:37;;;;;;;3.50;2.90;;;;;;;;;;5050251;28;20202;-82
2022/10/19 09:58:06;;;;;;;4.37;2.77;;;;;;;;;;5050704;28;20206;-82
2022/10/19 10:00:36;;;;;;;3.20;2.50;;;;;;;;;;5036301;28;20205;-82
2022/10/19 10:03:04;;;;;;;4.57;2.83;;;;;;;;;;5049402;28;20716;-82
2022/10/19 10:05:32;;;;;;;3.30;2.57;;;;;;;;;;5049694;28;20565;-81
2022/10/19 10:07:59;;;;;;;5.20;2.50;;;;;;;;;;5049433;28;20700;-81
2022/10/19 10:10:31;;;;;;;4.93;2.70;;;;;;;;;;5049094;28;20202;-82
2022/10/19 10:12:58;;;;;;;2.70;2.50;;;;;;;;;;5049644;28;20592;-81
2022/10/19 10:15:28;;;;;;;3.67;2.40;;;;;;;;;;5049317;28;20215;-81
2022/10/19 10:17:55;;;;;;;3.23;2.83;;;;;;;;;;5049144;28;20201;-81
2022/10/19 10:20:27;;;;;;;2.27;2.10;;;;;;;;;;5049050;28;20285;-82
2022/10/19 10:22:57;;;;;;;3.87;2.33;;;;;;;;;;5052949;28;20225;-82
2022/10/19 10:25:27;;;;;;;3.50;2.87;;;;;;;;;;5052717;28;20241;-82
2022/10/19 10:27:58;;;;;;;3.27;2.70;;;;;;;;;;5052586;28;20711;-82
2022/10/19 10:30:27;;;;;;;2.47;2.27;;;;;;;;;;5052851;28;20210;-80
2022/10/19 10:32:55;;;;;;;7.03;2.67;;;;;;;;;;5038485;28;20218;-82
2022/10/19 10:35:25;;;;;;;3.93;2.40;;;;;;;;;;5052802;28;20206;-82
2022/10/19 10:37:52;;;;;;;3.03;2.37;;;;;;;;;;5052289;28;20209;-82
2022/10/19 10:40:23;;;;;;;4.67;2.90;;;;;;;;;;5052272;28;20715;-82
2022/10/19 10:42:50;;;;;;;2.53;2.33;;;;;;;;;;5052559;28;20229;-81
2022/10/19 10:45:22;;;;;;;2.77;2.40;;;;;;;;;;5052429;28;20202;-82
2022/10/19 10:47:49;;;;;;;2.37;2.17;;;;;;;;;;5052313;28;20667;-82
2022/10/19 10:50:20;;;;;;;2.40;2.20;;;;;;;;;;5052156;28;20567;-81
2022/10/19 10:52:57;;;;;;;6.23;3.17;;;;;;;;;;5052458;28;20213;-82
2022/10/19 10:55:25;;;;;;;6.00;2.23;;;;;;;;;;5052052;28;20198;-82
2022/10/19 10:57:54;;;;;;;2.40;1.87;;;;;;;;;;5052069;28;20642;-81
2022/10/19 11:00:24;;;;;;;5.70;3.00;;;;;;;;;;5052070;28;20202;-82
2022/10/19 11:02:54;;;;;;;2.03;1.93;;;;;;;;;;5046247;28;169800;-81
2022/10/19 11:05:25;;;;;;;2.73;1.63;;;;;;;;;;5052094;28;20567;-82
2022/10/19 11:07:54;;;;;;;3.33;2.43;;;;;;;;;;5053457;28;20206;-81
2022/10/19 11:10:25;;;;;;;2.43;2.23;;;;;;;;;;5052877;28;20198;-81
2022/10/19 11:12:58;;;;;;;3.87;2.07;;;;;;;;;;5053449;28;20272;-81
2022/10/19 11:15:30;;;;;;;3.60;2.40;;;;;;;;;;5052921;28;20206;-81
2022/10/19 11:18:04;;;;;;;1.83;1.70;;;;;;;;;;5053140;28;20213;-81
2022/10/19 11:20:32;;;;;;;2.30;2.10;;;;;;;;;;5052940;28;20267;-81
2022/10/19 11:23:07;;;;;;;3.70;1.90;;;;;;;;;;5053060;28;20241;-81
2022/10/19 11:25:43;;;;;;;2.63;2.27;;;;;;;;;;5052689;28;20758;-81
2022/10/19 11:28:21;;;;;;;2.23;2.03;;;;;;;;;;5053201;28;20202;-81
2022/10/19 11:30:56;;;;;;;3.20;2.47;;;;;;;;;;5052733;28;20201;-81
2022/10/19 11:33:33;;;;;;;2.23;2.03;;;;;;;;;;5052122;28;20658;-81
2022/10/19 11:36:04;;;;;;;4.50;2.10;;;;;;;;;;5052894;28;20194;-81
2022/10/19 11:38:45;;;;;;;2.10;1.90;;;;;;;;;;5052852;28;20696;-81
2022/10/19 11:41:20;;;;;;;3.10;2.00;;;;;;;;;;5052347;28;20264;-80
2022/10/19 11:43:55;;;;;;;2.50;2.27;;;;;;;;;;5052221;28;20228;-81
2022/10/19 11:46:28;;;;;;;2.80;1.97;;;;;;;;;;5052444;28;20642;-81
2022/10/19 11:49:06;;;;;;;2.40;2.10;;;;;;;;;;5052480;28;20206;-81
2022/10/19 11:51:36;;;;;;;3.37;2.03;;;;;;;;;;5052722;28;20262;-81
2022/10/19 11:54:15;;;;;;;6.90;1.93;;;;;;;;;;5052264;28;20209;-81
2022/10/19 11:56:46;;;;;;;2.93;2.00;;;;;;;;;;5052327;28;20293;-81
2022/10/19 11:59:18;;;;;;;6.60;1.87;;;;;;;;;;5052241;28;20218;-80
2022/10/19 12:01:54;;;;;;;5.97;2.20;;;;;;;;;;5052185;28;20225;-81
2022/10/19 12:04:34;;;;;;;3.37;2.07;;;;;;;;;;5051926;28;20799;-81
2022/10/19 12:07:08;;;;;;;3.80;2.10;;;;;;;;;;5052420;28;20206;-80
2022/10/19 12:09:45;;;;;;;2.83;1.80;;;;;;;;;;5051773;28;20217;-81
2022/10/19 12:12:23;;;;;;;5.73;2.00;;;;;;;;;;5052049;28;20614;-81
2022/10/19 12:14:52;;;;;;;2.20;2.00;;;;;;;;;;5052178;28;20271;-81
2022/10/19 12:17:25;;;;;;;1.97;1.87;;;;;;;;;;5051929;28;20213;-81
2022/10/19 12:19:55;;;;;;;1.70;1.60;;;;;;;;;;5051484;28;20198;-80
2022/10/19 12:22:24;;;;;;;3.73;2.00;;;;;;;;;;5051958;28;20201;-80
2022/10/19 12:24:54;;;;;;;2.70;1.80;;;;;;;;;;5051475;28;20233;-80
2022/10/19 12:27:25;;;;;;;2.40;2.20;;;;;;;;;;5051679;28;20232;-81
2022/10/19 12:29:52;;;;;;;2.30;2.10;;;;;;;;;;5051663;28;20684;-81
2022/10/19 12:32:20;;;;;;;2.97;2.07;;;;;;;;;;5051494;28;20202;-81
2022/10/19 12:34:54;;;;;;;2.73;2.47;;;;;;;;;;5052008;28;20198;-80
2022/10/19 12:37:26;;;;;;;2.20;2.07;;;;;;;;;;5051513;28;20214;-81
2022/10/19 12:39:56;;;;;;;2.60;2.33;;;;;;;;;;5051519;28;20283;-81
2022/10/19 12:42:28;;;;;;;2.40;1.87;;;;;;;;;;5051908;28;20210;-82
2022/10/19 12:45:13;;;;;;;3.07;1.90;;;;;;;;;;5050806;28;20646;-81
2022/10/19 12:48:25;;;;;;;1.77;1.50;;;;;;;;;;5051209;28;20201;-81
2022/10/19 12:51:13;;;;;;;1.63;1.47;;;;;;;;;;5035966;28;20209;-81
2022/10/19 12:53:43;;;;;;;1.63;1.47;;;;;;;;;;5051460;28;20611;-82
2022/10/19 12:56:14;;;;;;;1.43;1.33;;;;;;;;;;5051097;28;20656;-81
2022/10/19 12:58:47;;;;;;;1.10;1.10;;;;;;;;;;5051142;28;20206;-81
2022/10/19 13:01:17;;;;;;;3.63;1.67;;;;;;;;;;5050945;28;20206;-81
2022/10/19 13:03:45;;;;;;;2.63;1.80;;;;;;;;;;5051078;28;20222;-82
2022/10/19 13:06:16;;;;;;;3.03;1.77;;;;;;;;;;5050821;28;20255;-81
2022/10/19 13:08:47;;;;;;;3.13;1.93;;;;;;;;;;5051065;28;20197;-81
2022/10/19 13:11:15;;;;;;;2.37;1.90;;;;;;;;;;5050704;28;20213;-81
2022/10/19 13:13:54;;;;;;;2.13;1.93;;;;;;;;;;5051185;28;20205;-81
2022/10/19 13:16:57;;;;;;;2.20;2.00;;;;;;;;;;5050782;28;20275;-80
2022/10/19 13:19:26;;;;;;;1.90;1.80;;;;;;;;;;5051069;28;20221;-81
2022/10/19 13:22:28;;;;;;;3.43;1.83;;;;;;;;;;5050702;28;20209;-80
2022/10/19 13:25:25;;;;;;;1.90;1.70;;;;;;;;;;5050714;28;20611;-81
2022/10/19 13:27:53;;;;;;;4.17;2.30;;;;;;;;;;5037554;28;20240;-81
2022/10/19 13:30:58;;;;;;;3.37;2.17;;;;;;;;;;5050095;28;20595;-81
2022/10/19 13:33:55;;;;;;;2.17;2.00;;;;;;;;;;5050960;28;20240;-81
2022/10/19 13:36:24;;;;;;;3.27;2.63;;;;;;;;;;5050425;28;20754;-80
2022/10/19 13:39:14;;;;;;;5.57;2.43;;;;;;;;;;5050552;28;20209;-81
2022/10/19 13:41:50;;;;;;;3.50;2.40;;;;;;;;;;5050359;28;20210;-80
2022/10/19 13:44:28;;;;;;;6.97;2.00;;;;;;;;;;5050250;28;20225;-80
2022/10/19 13:47:08;;;;;;;2.57;2.17;;;;;;;;;;5050564;28;20295;-81
2022/10/19 13:49:55;;;;;;;2.23;2.03;;;;;;;;;;5050079;28;20197;-81
2022/10/19 13:52:49;;;;;;;2.73;2.00;;;;;;;;;;5039660;28;20267;-81
2022/10/19 13:55:46;;;;;;;3.27;2.23;;;;;;;;;;5051766;28;20197;-81
2022/10/19 13:58:37;;;;;;;3.00;2.00;;;;;;;;;;5054485;28;20589;-81
2022/10/19 14:01:16;;;;;;;2.50;2.13;;;;;;;;;;5054402;28;20672;-81
2022/10/19 14:03:54;;;;;;;2.80;2.30;;;;;;;;;;5054397;28;20229;-81
2022/10/19 14:06:25;;;;;;;2.53;2.33;;;;;;;;;;5054292;28;20209;-80
2022/10/19 14:09:20;;;;;;;2.97;2.50;;;;;;;;;;5054403;28;20668;-81
2022/10/19 14:11:48;;;;;;;3.13;2.53;;;;;;;;;;5053833;28;20202;-81
2022/10/19 14:14:18;;;;;;;3.60;2.27;;;;;;;;;;5054238;28;20216;-81
2022/10/19 14:16:47;;;;;;;2.90;2.30;;;;;;;;;;5054368;28;20224;-80
2022/10/19 14:19:14;;;;;;;4.67;2.53;;;;;;;;;;5053998;28;20201;-81
2022/10/19 14:21:41;;;;;;;3.63;2.13;;;;;;;;;;5054168;28;20279;-81
2022/10/19 14:24:21;;;;;;;3.83;2.57;;;;;;;;;;5053806;28;20628;-81
2022/10/19 14:26:48;;;;;;;2.40;2.20;;;;;;;;;;5054269;28;20205;-81
2022/10/19 14:29:14;;;;;;;3.10;2.67;;;;;;;;;;5054161;28;20202;-81
2022/10/19 14:31:41;;;;;;;2.37;2.10;;;;;;;;;;5053722;28;20206;-80
2022/10/19 14:34:09;;;;;;;2.07;1.90;;;;;;;;;;5053893;28;20217;-81
2022/10/19 14:36:37;;;;;;;4.33;2.57;;;;;;;;;;5054019;28;20267;-81
2022/10/19 14:39:05;;;;;;;3.17;2.47;;;;;;;;;;5053647;28;20206;-80
2022/10/19 14:41:35;;;;;;;2.37;2.17;;;;;;;;;;5053870;28;20240;-79
2022/10/19 14:44:24;;;;;;;6.20;2.73;;;;;;;;;;5053971;28;20312;-80
2022/10/19 14:46:50;;;;;;;3.90;2.57;;;;;;;;;;5053737;28;20202;-81
2022/10/19 14:49:17;;;;;;;5.90;2.20;;;;;;;;;;5053369;28;20208;-81
2022/10/19 14:51:46;;;;;;;4.20;2.57;;;;;;;;;;5053784;28;20205;-81
2022/10/19 14:54:17;;;;;;;2.60;2.40;;;;;;;;;;5053514;28;20936;-80
2022/10/19 14:56:49;;;;;;;5.13;3.20;;;;;;;;;;5053720;28;20206;-83
2022/10/19 14:59:23;;;;;;;5.87;3.67;;;;;;;;;;5053434;28;20601;-81
2022/10/19 15:01:50;;;;;;;7.47;5.80;;;;;;;;;;5053172;28;20240;-82